Bodensee (Kressbronn): 6,1°C  -  Teich der Wetterzentrale Bad Schussenried: 5,6°C |  Schneehöhe Kreuzthal-Steinberg (930 m ü. NN): 8 cm   
01.04.2020Höhe
ü. NN
ZeitTemperatur (°C)Nieder-
schlag
Luft-
feuchte
Luft-
druck
Wind
StationaktuellMinimumMaximumaktuellMaximum
Aldingen654 m07:31-5,6-5,7 (08:00)-0,3 (16:02)0,0 l/m²83%1023,23,7 km/h (1 Bft) W29,6 km/h (5 Bft) W (14:48)
Allmendingen541 m07:30-6,4-6,7 (07:05)-2,1 (15:10)0,0 l/m²89%1022,91,6 km/h (1 Bft) O35,4 km/h (5 Bft) O (15:35)
Altshausen574 m07:30-3,7-4,1 (06:33)-1,1 (00:16)0,0 l/m²67%1020,59,7 km/h (2 Bft) NO11,3 km/h (2 Bft) N (06:10)
Amstetten-Reutti663 m07:30-4,6-4,7 (07:05)-1,5 (16:55)0,0 l/m²86%1022,71,6 km/h (1 Bft) W-SW48,3 km/h (6 Bft) W (15:55)
Amtzell-Grenis677 m07:30-2,3-4,1 (06:05)-1,4 (00:00)0,0 l/m²57%1022,79,7 km/h (2 Bft) NO12,9 km/h (3 Bft) N (06:45)
Aulendorf570 m07:30-3,1-3,2 (07:05)-0,5 (00:00)0,0 l/m²73%1021,66,4 km/h (2 Bft) NO17,7 km/h (3 Bft) O-NO (07:06)
Bad Krozingen233 m07:30-1,7-2,3 (06:50)3,7 (16:05)0,0 l/m²77%1023,51,7 km/h (1 Bft) S-SO38,1 km/h (5 Bft) N (17:05)
Bad Saulgau595 m07:30-4,9-5,2 (08:00)-1,9 (15:00)0,0 l/m²88%1021,40,0 km/h (0 Bft) S-SO25,7 km/h (4 Bft) S (11:35)
Bad Saulgau, Mannsgrab588 m07:33-4,3-6,1 (05:34)-1,7 (00:17)0,0 l/m²85%1023,80,0 km/h (0 Bft) N-NO0,0 km/h (0 Bft) N (00:00)
Bad Saulgau-Lampertsweiler627 m07:30-4,7-4,8 (06:15)0,2 (00:00)0,0 l/m²83%1024,48,0 km/h (2 Bft) N-NW22,5 km/h (4 Bft) N-NW (01:15)
Bad Schussenried572 m07:30-4,3-4,4 (07:30)-1,1 (00:00)0,0 l/m²88%1021,10,0 km/h (0 Bft) NO9,7 km/h (2 Bft) NO (03:15)
Bergatreute615 m07:30-3,9-4,1 (07:20)0,0 (00:00)0,0 l/m²88%1021,64,8 km/h (1 Bft) NO17,7 km/h (3 Bft) O (01:55)
Biberach (Riss), Boehringer533 m07:40-4,1-4,4 (07:00)-1,1 (00:30)0,0 l/m²90%1021,74,3 km/h (1 Bft) N11,9 km/h (3 Bft) N (03:00)
Biberach (Riss), Realschule553 m07:30-4,2-4,3 (07:15)-0,3 (00:00)0,0 l/m²88%1023,56,4 km/h (2 Bft) N-NW12,9 km/h (3 Bft) N (06:05)
Burgrieden523 m07:30-4,4-4,4 (07:30)-0,4 (00:00)0,0 l/m²83%1022,80,0 km/h (0 Bft) O-NO4,8 km/h (1 Bft) O-NO (02:50)
Burgrieden-Hochstetten510 m07:30-4,4-4,8 (08:00)-0,9 (15:40)0,0 l/m²89%1023,14,8 km/h (1 Bft) N-NO25,7 km/h (4 Bft) NO (12:55)
Ebersbach579 m07:30-3,8-4,0 (07:15)-0,1 (00:00)0,0 l/m²87%1023,06,4 km/h (2 Bft) N-NW16,1 km/h (3 Bft) NO (01:25)
Ebersbach-Boos605 m07:30-4,6-4,7 (07:15)-0,1 (00:00)0,0 l/m²90%1022,714,5 km/h (3 Bft) NO22,5 km/h (4 Bft) O (01:00)
Ebersbach-Menzenweiler661 m07:30-3,8-3,9 (06:20)-0,6 (00:00)0,0 l/m²88%1022,619,3 km/h (3 Bft) NO24,1 km/h (4 Bft) O-NO (01:05)
Ehingen535 m01:10-2,5-2,5 (01:10)-1,3 (00:05)0,0 l/m²70%1025,40,0 km/h (0 Bft) N-NO5,0 km/h (1 Bft) N-NO (00:15)
Erlenmoos645 m07:30-4,4-4,4 (07:30)-0,9 (00:00)0,0 l/m²87%1022,50,0 km/h (0 Bft) NO12,9 km/h (3 Bft) O-NO (01:35)
Ertingen569 m07:30-3,6-3,7 (06:55)-0,6 (00:00)0,0 l/m²84%1022,74,8 km/h (1 Bft) N16,1 km/h (3 Bft) N-NO (04:10)
Friedrichshafen405 m07:30-1,9-1,9 (07:00)0,9 (13:30)0,0 l/m²79%1022,68,0 km/h (2 Bft) N27,4 km/h (4 Bft) NO (15:10)
Günzburg443 m07:30-5,2-5,3 (07:20)-1,1 (00:00)0,0 l/m²88%1020,80,0 km/h (0 Bft) NO0,0 km/h (0 Bft) NO (00:00)
Hochdorf-Appendorf537 m07:30-5,7-6,3 (07:30)-1,7 (00:15)0,0 l/m²68%1022,44,8 km/h (1 Bft) N-NW14,5 km/h (3 Bft) N-NW (03:20)
Höchsten802 m07:30-4,5-4,7 (07:10)-1,4 (00:00)0,0 l/m²85%1020,420,9 km/h (4 Bft) N-NO25,7 km/h (4 Bft) NO (02:45)
Horgenzell618 m07:30-1,9-1,9 (03:45)-0,6 (00:05)0,0 l/m²76%1020,14,8 km/h (1 Bft) N-NO19,3 km/h (3 Bft) N-NO (00:50)
Hoßkirch632 m07:30-6,6-6,7 (07:25)-1,0 (00:15)0,0 l/m²89%1021,44,8 km/h (1 Bft) O-SO14,5 km/h (3 Bft) O-NO (00:20)
Isny, Am Dreifingerbach695 m07:30-4,7-6,2 (06:25)0,1 (01:00)0,0 l/m²88%1021,50,0 km/h (0 Bft) NW14,5 km/h (3 Bft) O-NO (01:05)
Isny, Weidachweg706 m07:30-4,8-5,3 (07:10)0,3 (00:25)0,0 l/m²77%1023,60,0 km/h (0 Bft) W12,9 km/h (3 Bft) W (00:10)
Kappel-Grafenhausen163 m07:25-1,9-2,1 (07:10)3,3 (14:55)0,0 l/m²81%1021,24,8 km/h (1 Bft) N30,6 km/h (5 Bft) N-NO (16:55)
Kißlegg-Staibshof709 m07:30-3,7-3,8 (07:10)-0,9 (00:00)0,0 l/m²83%1022,40,0 km/h (0 Bft) NO14,5 km/h (3 Bft) O (01:50)
Kressbronn398 m07:32-2,8-2,8 (07:20)1,4 (00:00)0,0 l/m²81%1021,34,8 km/h (1 Bft) NO22,5 km/h (4 Bft) NO (00:54)
Kreuzthal-Steinberg-Alpe930 m07:30-4,4-4,9 (06:50)-2,5 (00:00)0,0 l/m²86%1022,01,1 km/h (1 Bft) S-SO22,0 km/h (4 Bft) W-NW (00:10)
Kreuzthal-Steinberggipfel1040 m07:30-3,2-4,0 (02:20)-3,0 (07:30)-70%1022,011,9 km/h (3 Bft) O37,1 km/h (5 Bft) O-SO (00:10)
Kristberg im Montafon (AT)1425 m07:30-6,1-6,6 (04:51)-5,3 (00:40)0,0 l/m²53%1026,30,0 km/h (0 Bft) N10,1 km/h (2 Bft) NO (01:47)
Laupheim500 m07:30-3,7-4,0 (06:35)0,0 (00:00)0,0 l/m²83%1022,18,0 km/h (2 Bft) NO9,7 km/h (2 Bft) O-SO (00:20)
Leutkirch-Heggelbach670 m07:30-4,9-4,9 (07:00)-2,6 (00:30)0,0 l/m²88%1021,50,0 km/h (0 Bft) N8,0 km/h (2 Bft) N-NO (03:30)
Lindau-Insel420 m07:30-1,7-1,8 (07:25)1,8 (14:55)0,0 l/m²75%1021,61,6 km/h (1 Bft) O-NO29,0 km/h (5 Bft) NO (17:05)
Lindau-Stadt412 m07:30-2,2-2,4 (08:00)1,2 (14:55)0,0 l/m²76%1021,78,0 km/h (2 Bft) N33,8 km/h (5 Bft) N-NO (15:40)
Maierhöfen im Allgäu733 m07:30-5,9-5,9 (07:30)-1,2 (01:35)0,0 l/m²82%1021,90,0 km/h (0 Bft) NW25,7 km/h (4 Bft) O-SO (02:05)
Maselheim543 m07:30-5,4-5,4 (08:00)-2,3 (13:20)0,0 l/m²87%1022,90,0 km/h (0 Bft) N24,1 km/h (4 Bft) O-NO (15:20)
Maselheim-Sulmingen548 m07:30-5,3-5,7 (07:15)-2,2 (15:15)0,0 l/m²90%1024,20,0 km/h (0 Bft) NW20,9 km/h (4 Bft) N-NO (12:15)
Mietingen-Baltringen528 m07:30-4,8-5,0 (06:35)-1,3 (00:45)0,0 l/m²87%1024,61,6 km/h (1 Bft) O-NO4,8 km/h (1 Bft) N-NO (01:20)
Mindelheim-Apfeltrach620 m07:31-6,2-6,2 (07:21)-2,7 (00:00)0,0 l/m²88%1024,00,0 km/h (0 Bft) NO0,0 km/h (0 Bft) O-NO (00:00)
Mittelbiberach577 m07:31-4,4-4,6 (06:56)-1,0 (00:16)0,0 l/m²85%1023,80,0 km/h (0 Bft) N12,8 km/h (3 Bft) NO (05:56)
Neresheim552 m07:00-7,3-7,3 (07:00)-2,0 (00:00)0,0 l/m²91%1021,70,0 km/h (0 Bft) O4,0 km/h (1 Bft) NO (01:00)
Neukirch570 m07:30-3,3-3,4 (07:15)-0,9 (14:35)0,0 l/m²81%1021,96,4 km/h (2 Bft) N-NO37,0 km/h (5 Bft) N-NO (11:55)
Ochsenhausen, Birkenstraße613 m07:30-5,7-5,7 (08:00)-2,2 (12:50)0,0 l/m²83%1023,01,6 km/h (1 Bft) O-SO1,6 km/h (1 Bft) SW (08:00)
Ochsenhausen, Unt. Wiesen575 m07:30-5,7-5,7 (06:15)-2,4 (00:00)0,0 l/m²88%1024,43,2 km/h (1 Bft) NO4,8 km/h (1 Bft) NO (00:00)
Opfenbach-Göritz561 m07:31-5,7-5,8 (07:19)-2,8 (00:00)0,0 l/m²80%1019,91,4 km/h (1 Bft) N-NO6,5 km/h (2 Bft) O-NO (00:18)
Ostrach619 m07:30-3,8-3,8 (04:15)-0,6 (00:00)0,0 l/m²90%1020,90,0 km/h (0 Bft) N-NW12,9 km/h (3 Bft) N-NW (06:30)
Ravensburg, Goethestraße428 m07:30-2,2-2,2 (07:20)1,3 (00:00)0,0 l/m²82%1021,716,1 km/h (3 Bft) NO17,7 km/h (3 Bft) NO (06:45)
Ravensburg-Wernsreute511 m07:30-3,1-3,4 (07:00)0,0 (15:50)0,0 l/m²83%1024,619,3 km/h (3 Bft) N-NW35,4 km/h (5 Bft) N-NO (11:45)
Reichenbach an der Fils343 m07:30-2,7-2,7 (07:25)1,0 (00:00)0,0 l/m²78%1025,11,6 km/h (1 Bft) SO12,9 km/h (3 Bft) O-SO (05:10)
Riedlingen530 m07:30-3,4-3,6 (07:05)-1,0 (00:00)0,0 l/m²82%1022,90,0 km/h (0 Bft) O-NO0,0 km/h (0 Bft) N (00:00)
Rißtissen489 m07:30-3,4-3,5 (07:10)-0,2 (00:00)0,0 l/m²86%1020,40,0 km/h (0 Bft) O-NO8,0 km/h (2 Bft) O-NO (03:30)
Rottweil-Hausen681 m07:34-4,6-4,7 (06:55)-1,9 (00:00)0,0 l/m²84%1023,93,2 km/h (1 Bft) NW9,7 km/h (2 Bft) S-SW (07:27)
Schemmerhofen520 m07:302,72,7 (00:00)2,7 (00:00)0,0 l/m²55%1021,70,0 km/h (0 Bft) NO0,0 km/h (0 Bft) NO (00:00)
Silbertal im Montafon (AT)884 m07:31-4,6-4,7 (07:15)-1,6 (00:01)0,0 l/m²85%1026,20,0 km/h (0 Bft) O-NO0,0 km/h (0 Bft) O-NO (00:00)
Tettnang466 m07:34-2,3-2,3 (07:30)1,0 (00:00)0,0 l/m²75%1021,80,0 km/h (0 Bft) N16,2 km/h (3 Bft) O-SO (01:07)
Tuttlingen648 m07:26-4,5-4,5 (06:31)-2,1 (00:01)0,0 l/m²77%1023,20,0 km/h (0 Bft) NO5,2 km/h (1 Bft) W-SW (03:26)
Tuttlingen, Möhringer-Vorstadt711 m07:30-5,0-5,0 (08:00)-2,4 (16:05)0,0 l/m²84%1022,60,0 km/h (0 Bft) O-NO25,7 km/h (4 Bft) N-NW (12:35)
Ummendorf547 m07:30-4,8-5,1 (07:20)-0,7 (00:10)0,0 l/m²70%1023,70,0 km/h (0 Bft) O-NO16,1 km/h (3 Bft) O (01:05)
Ummendorf-Fischbach558 m07:30-4,8-5,4 (06:15)-1,9 (01:25)0,0 l/m²69%1023,66,4 km/h (2 Bft) NO6,4 km/h (2 Bft) O-NO (07:15)
Waldburg707 m07:30-3,2-3,5 (06:50)-0,8 (00:00)0,0 l/m²78%1021,48,0 km/h (2 Bft) N19,3 km/h (3 Bft) N (02:35)
Waltenhofen im Allgäu720 m07:30-7,9-7,9 (07:15)-2,2 (01:05)0,0 l/m²90%1022,20,0 km/h (0 Bft) W17,7 km/h (3 Bft) W (11:50)
Wangen, Südring548 m07:31-3,4-4,2 (06:51)-0,3 (00:00)0,0 l/m²83%1021,48,0 km/h (2 Bft) N-NO13,0 km/h (3 Bft) NO (01:25)
Warthausen-Birkenhard581 m07:29-4,4-4,4 (06:32)-1,2 (00:00)0,0 l/m²86%1023,513,7 km/h (3 Bft) N13,7 km/h (3 Bft) NO (06:13)
Winterlingen785 m07:30-4,7-5,6 (06:30)-2,8 (01:00)0,0 l/m²80%1021,83,2 km/h (1 Bft) NO3,6 km/h (1 Bft) NO (00:55)

Werbung
niederschlagsdatenbank | info | login - erfassung

Sollten Sie Interesse haben, an der Niederschlagsdatenbank teilzunehmen, finden Sie > hier < weitere Informationen.

Niederschlagsdaten der Station Pfullendorf - Ringstraße

Freiwillige Feuerwehr Pfullendorf, Gerätewart: Marc Quecke

Niederschlagsstation aufgenommen ins Stationsnetz der Wetterwarte Süd am 14.05.2011
Monat: .
Anmerkung:0,0 = nicht messbarer Niederschlag
 -  = kein Niederschlag

Stationsdaten

Höhe

660 m

Lage

Auf Google Maps ansehen

Beschreibung

Die Meßstation befindet sich in einem locker bebauten Wohngebiet im höher gelegenen Stadtteil von Pfullendorf.
< Februar 2012April 2012 >

März 2012

TagNiederschlagBemerkung
01.-
02.-
03.-
04.-
05.-
06.-
07.-
08.-
09.-
10.-
11.-
12.-
13.-
14.-
15.-
16.-
17.-
18.10,8
19.-
20.-
21.-
22.-
23.-
24.-
25.-
26.-
27.-
28.-
29.-
30.-
31.-
Gesamt:10,8 
Die Spalten "Tag" und "Niederschlag" lassen sich durch Klicken auf den Spaltenkopf sortieren.
Die Angaben sind in l/m².

< Februar 2012April 2012 >


Monats- und Jahresniederschlag


Wetterbeobachtungen Legende:

  • Regen
  • Nieselregen
  • Schneeregen
  • Schnee
  • Graupel
  • Eiskörner
  • Hagel
  • Bodennebel
  • Gewitter
  • Nebelnässe
  • Schneegriesel

Grafische Darstellung der Niederschläge der Station Pfullendorf März 2012

 
wetterstationen
wetterstationen
- derzeit 83 Stationen
niederschlagsdatenbank
wetterstationen
- kartographische Darstellung
niederschlagsdatenbank
niederschlagsstationen
- derzeit 112 Stationen
niederschlagsdatenbank
niederschlagsstationen
- kartographische Darstellung
 
  treffpunkt & service
--- Anzeigen --------------------------------
zugriffe:
insgesamt: 46.623.838
aktueller monat: 1.027
heute: 1.027
momentan online: 60
 
 
monatshöchstwert: 653.625
vorheriger monat: 364.213
gestern: 13.565
tageshöchstwert: 57.073
 
wetterwarte süd
 
konradstraße 3
info@wetterwarte-sued.com
roland roth
 
88427 bad schussenried